Gate City, Virginia
Current Conditions -  °F | °C
As of 4:53 PM on Wednesday 28 Jan 2015 (Local Time) from KTRI Reporting Station
Few Clouds Few Clouds  
Wind Chill: 38°   Ceiling: Unl
Heat Index: 38°   Visibility: 10mi
Dew Point: 18°   Wind: 3mph
Humidity: 44%   Direction: 190°S
Pressure: 30.27"   Gusts: NA
Location:  36.64°N, 82.58°W
Report Text: KTRI 282153Z 19003KT 10SM FEW250 03/M08 A3027 RMK AO2 SLP255 T00331078
Loading
Personal Weather Stations






























Interactive Weather Map New forecast layout! Learn more

10-Day Weather Forecast

Advertisements
Track Severe Weather on mobile